sensor_id;sensor_type;location;lat;lon;timestamp;P1;durP1;ratioP1;P2;durP2;ratioP2
60919;SDS011;59039;52.108;19.942;2023-06-22T00:01:31;46.60;;;36.10;;
60919;SDS011;59039;52.108;19.942;2023-06-22T00:03:56;47.90;;;36.60;;
60919;SDS011;59039;52.108;19.942;2023-06-22T00:06:22;49.60;;;37.10;;
60919;SDS011;59039;52.108;19.942;2023-06-22T00:08:47;48.70;;;34.10;;
60919;SDS011;59039;52.108;19.942;2023-06-22T00:11:12;48.60;;;35.70;;
60919;SDS011;59039;52.108;19.942;2023-06-22T00:13:38;44.90;;;36.40;;
60919;SDS011;59039;52.108;19.942;2023-06-22T00:16:04;44.80;;;35.20;;
60919;SDS011;59039;52.108;19.942;2023-06-22T00:18:29;48.30;;;36.30;;
60919;SDS011;59039;52.108;19.942;2023-06-22T00:20:55;47.50;;;34.70;;
60919;SDS011;59039;52.108;19.942;2023-06-22T00:23:20;45.10;;;34.30;;
60919;SDS011;59039;52.108;19.942;2023-06-22T00:25:49;50.00;;;37.00;;
60919;SDS011;59039;52.108;19.942;2023-06-22T00:28:35;50.20;;;37.30;;
60919;SDS011;59039;52.108;19.942;2023-06-22T00:31:00;46.50;;;37.10;;
60919;SDS011;59039;52.108;19.942;2023-06-22T00:33:25;51.40;;;36.10;;
60919;SDS011;59039;52.108;19.942;2023-06-22T00:35:51;50.70;;;38.20;;
60919;SDS011;59039;52.108;19.942;2023-06-22T00:38:17;49.00;;;38.00;;
60919;SDS011;59039;52.108;19.942;2023-06-22T00:40:46;51.50;;;37.60;;
60919;SDS011;59039;52.108;19.942;2023-06-22T00:43:11;53.90;;;39.50;;
60919;SDS011;59039;52.108;19.942;2023-06-22T00:45:36;51.80;;;36.30;;
60919;SDS011;59039;52.108;19.942;2023-06-22T00:48:11;52.00;;;37.70;;
60919;SDS011;59039;52.108;19.942;2023-06-22T00:50:37;49.30;;;36.50;;
60919;SDS011;59039;52.108;19.942;2023-06-22T00:53:06;50.70;;;37.30;;
60919;SDS011;59039;52.108;19.942;2023-06-22T00:55:35;52.40;;;37.70;;
60919;SDS011;59039;52.108;19.942;2023-06-22T00:58:06;46.90;;;35.50;;
60919;SDS011;59039;52.108;19.942;2023-06-22T01:00:34;53.70;;;37.30;;
60919;SDS011;59039;52.108;19.942;2023-06-22T01:03:01;49.70;;;37.10;;
60919;SDS011;59039;52.108;19.942;2023-06-22T01:05:27;46.90;;;35.70;;
60919;SDS011;59039;52.108;19.942;2023-06-22T01:10:40;54.30;;;36.90;;
60919;SDS011;59039;52.108;19.942;2023-06-22T01:18:40;49.20;;;36.50;;
60919;SDS011;59039;52.108;19.942;2023-06-22T01:21:07;50.30;;;36.10;;
60919;SDS011;59039;52.108;19.942;2023-06-22T01:26:38;47.10;;;34.80;;
60919;SDS011;59039;52.108;19.942;2023-06-22T01:29:22;50.80;;;35.40;;
60919;SDS011;59039;52.108;19.942;2023-06-22T01:31:56;45.00;;;34.20;;
60919;SDS011;59039;52.108;19.942;2023-06-22T01:34:24;45.70;;;33.00;;
60919;SDS011;59039;52.108;19.942;2023-06-22T01:36:50;44.00;;;33.10;;
60919;SDS011;59039;52.108;19.942;2023-06-22T01:39:17;48.80;;;33.80;;
60919;SDS011;59039;52.108;19.942;2023-06-22T01:41:44;42.20;;;32.20;;
60919;SDS011;59039;52.108;19.942;2023-06-22T01:44:12;43.70;;;32.20;;
60919;SDS011;59039;52.108;19.942;2023-06-22T01:46:37;44.10;;;33.60;;
60919;SDS011;59039;52.108;19.942;2023-06-22T01:49:04;42.80;;;32.40;;
60919;SDS011;59039;52.108;19.942;2023-06-22T01:51:31;41.20;;;31.30;;
60919;SDS011;59039;52.108;19.942;2023-06-22T01:53:56;44.00;;;31.10;;
60919;SDS011;59039;52.108;19.942;2023-06-22T01:56:22;43.20;;;30.00;;
60919;SDS011;59039;52.108;19.942;2023-06-22T02:01:49;40.20;;;28.60;;
60919;SDS011;59039;52.108;19.942;2023-06-22T02:04:27;39.70;;;29.20;;
60919;SDS011;59039;52.108;19.942;2023-06-22T02:06:58;38.60;;;28.90;;
60919;SDS011;59039;52.108;19.942;2023-06-22T02:09:40;36.90;;;26.60;;
60919;SDS011;59039;52.108;19.942;2023-06-22T02:12:09;35.80;;;26.20;;
60919;SDS011;59039;52.108;19.942;2023-06-22T02:14:49;36.30;;;25.10;;
60919;SDS011;59039;52.108;19.942;2023-06-22T02:22:59;32.00;;;24.40;;
60919;SDS011;59039;52.108;19.942;2023-06-22T02:25:27;31.30;;;23.80;;
60919;SDS011;59039;52.108;19.942;2023-06-22T02:27:52;27.50;;;22.00;;
60919;SDS011;59039;52.108;19.942;2023-06-22T02:30:18;31.40;;;23.70;;
60919;SDS011;59039;52.108;19.942;2023-06-22T02:32:50;31.60;;;21.00;;
60919;SDS011;59039;52.108;19.942;2023-06-22T02:35:16;30.50;;;22.40;;
60919;SDS011;59039;52.108;19.942;2023-06-22T02:37:41;31.40;;;22.60;;
60919;SDS011;59039;52.108;19.942;2023-06-22T02:40:07;31.70;;;23.40;;
60919;SDS011;59039;52.108;19.942;2023-06-22T02:42:33;28.70;;;21.80;;
60919;SDS011;59039;52.108;19.942;2023-06-22T02:44:58;32.50;;;23.50;;
60919;SDS011;59039;52.108;19.942;2023-06-22T02:47:24;30.50;;;21.70;;
60919;SDS011;59039;52.108;19.942;2023-06-22T02:49:49;29.70;;;21.40;;
60919;SDS011;59039;52.108;19.942;2023-06-22T02:52:14;28.90;;;21.60;;
60919;SDS011;59039;52.108;19.942;2023-06-22T02:54:40;32.20;;;21.50;;
60919;SDS011;59039;52.108;19.942;2023-06-22T02:57:05;32.70;;;22.20;;
60919;SDS011;59039;52.108;19.942;2023-06-22T02:59:30;26.50;;;20.40;;
60919;SDS011;59039;52.108;19.942;2023-06-22T03:01:56;27.30;;;20.80;;
60919;SDS011;59039;52.108;19.942;2023-06-22T03:04:21;28.10;;;20.70;;
60919;SDS011;59039;52.108;19.942;2023-06-22T03:06:46;28.90;;;20.80;;
60919;SDS011;59039;52.108;19.942;2023-06-22T03:09:12;28.70;;;22.00;;
60919;SDS011;59039;52.108;19.942;2023-06-22T03:11:37;28.80;;;20.90;;
60919;SDS011;59039;52.108;19.942;2023-06-22T03:14:02;30.00;;;21.10;;
60919;SDS011;59039;52.108;19.942;2023-06-22T03:16:28;30.80;;;20.60;;
60919;SDS011;59039;52.108;19.942;2023-06-22T03:18:53;28.60;;;21.10;;
60919;SDS011;59039;52.108;19.942;2023-06-22T03:21:19;28.90;;;21.00;;
60919;SDS011;59039;52.108;19.942;2023-06-22T03:23:46;27.40;;;20.70;;
60919;SDS011;59039;52.108;19.942;2023-06-22T03:26:12;32.70;;;21.90;;
60919;SDS011;59039;52.108;19.942;2023-06-22T03:28:37;29.20;;;20.90;;
60919;SDS011;59039;52.108;19.942;2023-06-22T03:31:03;29.00;;;21.70;;
60919;SDS011;59039;52.108;19.942;2023-06-22T03:33:29;28.60;;;21.40;;
60919;SDS011;59039;52.108;19.942;2023-06-22T03:35:54;26.90;;;20.60;;
60919;SDS011;59039;52.108;19.942;2023-06-22T03:38:19;30.10;;;21.60;;
60919;SDS011;59039;52.108;19.942;2023-06-22T03:40:45;31.00;;;22.40;;
60919;SDS011;59039;52.108;19.942;2023-06-22T03:43:10;28.10;;;20.70;;
60919;SDS011;59039;52.108;19.942;2023-06-22T03:45:36;28.10;;;20.90;;
60919;SDS011;59039;52.108;19.942;2023-06-22T03:48:01;28.50;;;21.50;;
60919;SDS011;59039;52.108;19.942;2023-06-22T03:50:27;28.70;;;20.70;;
60919;SDS011;59039;52.108;19.942;2023-06-22T03:52:52;30.90;;;21.90;;
60919;SDS011;59039;52.108;19.942;2023-06-22T03:55:19;29.10;;;21.10;;
60919;SDS011;59039;52.108;19.942;2023-06-22T03:57:45;32.00;;;22.00;;
60919;SDS011;59039;52.108;19.942;2023-06-22T04:00:11;27.00;;;21.50;;
60919;SDS011;59039;52.108;19.942;2023-06-22T04:02:36;27.20;;;21.00;;
60919;SDS011;59039;52.108;19.942;2023-06-22T04:05:02;30.30;;;21.70;;
60919;SDS011;59039;52.108;19.942;2023-06-22T04:07:27;26.70;;;21.50;;
60919;SDS011;59039;52.108;19.942;2023-06-22T04:09:52;34.10;;;22.50;;
60919;SDS011;59039;52.108;19.942;2023-06-22T04:12:18;29.20;;;21.60;;
60919;SDS011;59039;52.108;19.942;2023-06-22T04:14:43;29.70;;;21.60;;
60919;SDS011;59039;52.108;19.942;2023-06-22T04:17:08;28.40;;;21.00;;
60919;SDS011;59039;52.108;19.942;2023-06-22T04:19:33;28.90;;;21.20;;
60919;SDS011;59039;52.108;19.942;2023-06-22T04:22:05;28.70;;;21.30;;
60919;SDS011;59039;52.108;19.942;2023-06-22T04:24:31;28.00;;;21.50;;
60919;SDS011;59039;52.108;19.942;2023-06-22T04:27:04;28.90;;;21.20;;
60919;SDS011;59039;52.108;19.942;2023-06-22T04:29:30;28.60;;;20.90;;
60919;SDS011;59039;52.108;19.942;2023-06-22T04:31:58;29.20;;;21.50;;
60919;SDS011;59039;52.108;19.942;2023-06-22T04:34:24;30.10;;;21.10;;
60919;SDS011;59039;52.108;19.942;2023-06-22T04:36:50;28.80;;;21.50;;
60919;SDS011;59039;52.108;19.942;2023-06-22T04:39:15;26.80;;;19.70;;
60919;SDS011;59039;52.108;19.942;2023-06-22T04:41:41;28.00;;;20.80;;
60919;SDS011;59039;52.108;19.942;2023-06-22T04:44:06;29.70;;;19.90;;
60919;SDS011;59039;52.108;19.942;2023-06-22T04:46:41;28.50;;;21.10;;
60919;SDS011;59039;52.108;19.942;2023-06-22T04:49:09;27.70;;;20.70;;
60919;SDS011;59039;52.108;19.942;2023-06-22T04:51:44;27.60;;;20.30;;
60919;SDS011;59039;52.108;19.942;2023-06-22T04:54:10;27.50;;;20.50;;
60919;SDS011;59039;52.108;19.942;2023-06-22T04:56:35;27.00;;;20.70;;
60919;SDS011;59039;52.108;19.942;2023-06-22T04:59:01;29.70;;;20.50;;
60919;SDS011;59039;52.108;19.942;2023-06-22T05:01:27;27.90;;;20.40;;
60919;SDS011;59039;52.108;19.942;2023-06-22T05:03:52;30.10;;;19.90;;
60919;SDS011;59039;52.108;19.942;2023-06-22T05:06:18;26.70;;;19.80;;
60919;SDS011;59039;52.108;19.942;2023-06-22T05:08:43;25.80;;;19.00;;
60919;SDS011;59039;52.108;19.942;2023-06-22T05:11:15;27.90;;;21.00;;
60919;SDS011;59039;52.108;19.942;2023-06-22T05:13:40;23.60;;;19.10;;
60919;SDS011;59039;52.108;19.942;2023-06-22T05:16:05;25.70;;;18.30;;
60919;SDS011;59039;52.108;19.942;2023-06-22T05:18:45;27.20;;;18.50;;
60919;SDS011;59039;52.108;19.942;2023-06-22T05:21:11;24.10;;;18.40;;
60919;SDS011;59039;52.108;19.942;2023-06-22T05:23:36;29.10;;;19.80;;
60919;SDS011;59039;52.108;19.942;2023-06-22T05:26:01;24.40;;;17.70;;
60919;SDS011;59039;52.108;19.942;2023-06-22T05:28:27;23.30;;;17.80;;
60919;SDS011;59039;52.108;19.942;2023-06-22T05:30:52;17.90;;;14.60;;
60919;SDS011;59039;52.108;19.942;2023-06-22T05:33:18;22.40;;;17.70;;
60919;SDS011;59039;52.108;19.942;2023-06-22T05:35:43;24.20;;;18.10;;
60919;SDS011;59039;52.108;19.942;2023-06-22T05:38:09;22.30;;;17.30;;
60919;SDS011;59039;52.108;19.942;2023-06-22T05:40:34;25.20;;;15.80;;
60919;SDS011;59039;52.108;19.942;2023-06-22T05:43:00;21.00;;;15.40;;
60919;SDS011;59039;52.108;19.942;2023-06-22T05:45:25;19.90;;;14.60;;
60919;SDS011;59039;52.108;19.942;2023-06-22T05:47:51;19.90;;;15.70;;
60919;SDS011;59039;52.108;19.942;2023-06-22T05:50:25;21.00;;;14.90;;
60919;SDS011;59039;52.108;19.942;2023-06-22T05:52:50;19.10;;;14.80;;
60919;SDS011;59039;52.108;19.942;2023-06-22T05:55:16;19.90;;;14.70;;
60919;SDS011;59039;52.108;19.942;2023-06-22T05:57:41;17.60;;;13.20;;
60919;SDS011;59039;52.108;19.942;2023-06-22T06:00:16;16.90;;;12.50;;
60919;SDS011;59039;52.108;19.942;2023-06-22T06:02:50;17.10;;;13.20;;
60919;SDS011;59039;52.108;19.942;2023-06-22T06:05:16;15.50;;;12.20;;
60919;SDS011;59039;52.108;19.942;2023-06-22T06:07:42;16.30;;;11.90;;
60919;SDS011;59039;52.108;19.942;2023-06-22T06:10:08;18.30;;;11.90;;
60919;SDS011;59039;52.108;19.942;2023-06-22T06:12:34;13.70;;;10.40;;
60919;SDS011;59039;52.108;19.942;2023-06-22T06:15:00;16.30;;;12.00;;
60919;SDS011;59039;52.108;19.942;2023-06-22T06:17:35;16.10;;;11.00;;
60919;SDS011;59039;52.108;19.942;2023-06-22T06:20:03;16.20;;;11.60;;
60919;SDS011;59039;52.108;19.942;2023-06-22T06:22:29;16.50;;;11.50;;
60919;SDS011;59039;52.108;19.942;2023-06-22T06:24:57;13.20;;;10.30;;
60919;SDS011;59039;52.108;19.942;2023-06-22T06:27:22;14.60;;;9.60;;
60919;SDS011;59039;52.108;19.942;2023-06-22T06:29:47;14.00;;;10.90;;
60919;SDS011;59039;52.108;19.942;2023-06-22T06:32:13;15.80;;;10.90;;
60919;SDS011;59039;52.108;19.942;2023-06-22T06:34:45;13.20;;;9.60;;
60919;SDS011;59039;52.108;19.942;2023-06-22T06:37:11;12.40;;;9.40;;
60919;SDS011;59039;52.108;19.942;2023-06-22T06:39:36;13.00;;;9.00;;
60919;SDS011;59039;52.108;19.942;2023-06-22T06:42:02;16.50;;;10.20;;
60919;SDS011;59039;52.108;19.942;2023-06-22T06:44:27;14.80;;;9.20;;
60919;SDS011;59039;52.108;19.942;2023-06-22T06:46:53;10.90;;;9.70;;
60919;SDS011;59039;52.108;19.942;2023-06-22T06:49:18;11.70;;;9.10;;
60919;SDS011;59039;52.108;19.942;2023-06-22T06:51:43;11.50;;;8.80;;
60919;SDS011;59039;52.108;19.942;2023-06-22T06:54:11;16.00;;;9.10;;
60919;SDS011;59039;52.108;19.942;2023-06-22T06:56:37;10.40;;;7.70;;
60919;SDS011;59039;52.108;19.942;2023-06-22T06:59:02;11.40;;;7.90;;
60919;SDS011;59039;52.108;19.942;2023-06-22T07:01:28;12.40;;;7.50;;
60919;SDS011;59039;52.108;19.942;2023-06-22T07:03:53;10.70;;;6.20;;
60919;SDS011;59039;52.108;19.942;2023-06-22T07:06:18;10.00;;;6.00;;
60919;SDS011;59039;52.108;19.942;2023-06-22T07:08:44;7.60;;;5.30;;
60919;SDS011;59039;52.108;19.942;2023-06-22T07:11:12;7.80;;;5.70;;
60919;SDS011;59039;52.108;19.942;2023-06-22T07:13:37;7.70;;;5.80;;
60919;SDS011;59039;52.108;19.942;2023-06-22T07:18:52;8.50;;;5.70;;
60919;SDS011;59039;52.108;19.942;2023-06-22T07:21:18;8.20;;;5.60;;
60919;SDS011;59039;52.108;19.942;2023-06-22T07:23:43;7.80;;;6.00;;
60919;SDS011;59039;52.108;19.942;2023-06-22T07:26:08;9.00;;;6.20;;
60919;SDS011;59039;52.108;19.942;2023-06-22T07:28:34;7.50;;;5.70;;
60919;SDS011;59039;52.108;19.942;2023-06-22T07:30:59;8.00;;;5.80;;
60919;SDS011;59039;52.108;19.942;2023-06-22T07:33:33;8.30;;;5.60;;
60919;SDS011;59039;52.108;19.942;2023-06-22T07:35:59;7.30;;;4.70;;
60919;SDS011;59039;52.108;19.942;2023-06-22T07:38:24;5.40;;;4.50;;
60919;SDS011;59039;52.108;19.942;2023-06-22T07:40:50;4.70;;;4.10;;
60919;SDS011;59039;52.108;19.942;2023-06-22T07:43:15;5.20;;;4.40;;
60919;SDS011;59039;52.108;19.942;2023-06-22T07:45:44;6.60;;;4.90;;
60919;SDS011;59039;52.108;19.942;2023-06-22T07:48:13;5.90;;;4.20;;
60919;SDS011;59039;52.108;19.942;2023-06-22T07:50:39;5.60;;;4.30;;
60919;SDS011;59039;52.108;19.942;2023-06-22T07:53:04;6.00;;;4.60;;
60919;SDS011;59039;52.108;19.942;2023-06-22T07:55:30;6.00;;;4.70;;
60919;SDS011;59039;52.108;19.942;2023-06-22T07:57:55;5.60;;;4.60;;
60919;SDS011;59039;52.108;19.942;2023-06-22T08:00:21;5.90;;;4.50;;
60919;SDS011;59039;52.108;19.942;2023-06-22T08:02:46;9.90;;;5.10;;
60919;SDS011;59039;52.108;19.942;2023-06-22T08:05:12;7.90;;;4.50;;
60919;SDS011;59039;52.108;19.942;2023-06-22T08:07:39;10.30;;;4.60;;
60919;SDS011;59039;52.108;19.942;2023-06-22T08:10:05;7.90;;;4.50;;
60919;SDS011;59039;52.108;19.942;2023-06-22T08:12:31;6.30;;;4.80;;
60919;SDS011;59039;52.108;19.942;2023-06-22T08:14:56;7.20;;;4.60;;
60919;SDS011;59039;52.108;19.942;2023-06-22T08:17:21;7.80;;;4.80;;
60919;SDS011;59039;52.108;19.942;2023-06-22T08:19:50;8.90;;;4.60;;
60919;SDS011;59039;52.108;19.942;2023-06-22T08:22:15;9.70;;;5.50;;
60919;SDS011;59039;52.108;19.942;2023-06-22T08:24:42;7.70;;;5.20;;
60919;SDS011;59039;52.108;19.942;2023-06-22T08:27:15;7.00;;;4.90;;
60919;SDS011;59039;52.108;19.942;2023-06-22T08:29:40;7.70;;;5.00;;
60919;SDS011;59039;52.108;19.942;2023-06-22T08:32:06;8.00;;;5.20;;
60919;SDS011;59039;52.108;19.942;2023-06-22T08:34:42;8.30;;;5.20;;
60919;SDS011;59039;52.108;19.942;2023-06-22T08:37:08;7.20;;;5.50;;
60919;SDS011;59039;52.108;19.942;2023-06-22T08:39:34;6.90;;;5.70;;
60919;SDS011;59039;52.108;19.942;2023-06-22T08:42:13;11.90;;;5.20;;
60919;SDS011;59039;52.108;19.942;2023-06-22T08:44:48;12.40;;;6.90;;
60919;SDS011;59039;52.108;19.942;2023-06-22T08:47:15;7.50;;;5.20;;
60919;SDS011;59039;52.108;19.942;2023-06-22T08:49:41;8.20;;;4.80;;
60919;SDS011;59039;52.108;19.942;2023-06-22T08:52:06;6.50;;;5.40;;
60919;SDS011;59039;52.108;19.942;2023-06-22T08:54:32;9.20;;;5.80;;
60919;SDS011;59039;52.108;19.942;2023-06-22T08:57:06;9.20;;;6.30;;
60919;SDS011;59039;52.108;19.942;2023-06-22T08:59:32;11.80;;;7.10;;
60919;SDS011;59039;52.108;19.942;2023-06-22T09:01:58;12.90;;;6.90;;
60919;SDS011;59039;52.108;19.942;2023-06-22T09:04:24;11.30;;;6.30;;
60919;SDS011;59039;52.108;19.942;2023-06-22T09:06:49;11.40;;;6.20;;
60919;SDS011;59039;52.108;19.942;2023-06-22T09:09:15;7.50;;;5.60;;
60919;SDS011;59039;52.108;19.942;2023-06-22T09:11:47;9.50;;;5.60;;
60919;SDS011;59039;52.108;19.942;2023-06-22T09:14:12;13.50;;;8.10;;
60919;SDS011;59039;52.108;19.942;2023-06-22T09:16:46;10.00;;;6.20;;
60919;SDS011;59039;52.108;19.942;2023-06-22T09:19:14;14.20;;;6.30;;
60919;SDS011;59039;52.108;19.942;2023-06-22T09:21:57;8.00;;;5.90;;
60919;SDS011;59039;52.108;19.942;2023-06-22T09:24:22;34.40;;;9.90;;
60919;SDS011;59039;52.108;19.942;2023-06-22T09:26:48;26.90;;;9.00;;
60919;SDS011;59039;52.108;19.942;2023-06-22T09:29:13;17.30;;;7.90;;
60919;SDS011;59039;52.108;19.942;2023-06-22T09:31:44;9.10;;;5.70;;
60919;SDS011;59039;52.108;19.942;2023-06-22T09:34:09;8.80;;;5.30;;
60919;SDS011;59039;52.108;19.942;2023-06-22T09:36:35;7.90;;;5.20;;
60919;SDS011;59039;52.108;19.942;2023-06-22T09:39:00;6.80;;;5.20;;
60919;SDS011;59039;52.108;19.942;2023-06-22T09:41:31;7.30;;;5.20;;
60919;SDS011;59039;52.108;19.942;2023-06-22T09:44:15;7.40;;;5.20;;
60919;SDS011;59039;52.108;19.942;2023-06-22T09:46:44;7.30;;;5.40;;
60919;SDS011;59039;52.108;19.942;2023-06-22T09:49:11;6.60;;;5.20;;
60919;SDS011;59039;52.108;19.942;2023-06-22T09:51:36;8.60;;;5.50;;
60919;SDS011;59039;52.108;19.942;2023-06-22T09:54:10;7.00;;;4.90;;
60919;SDS011;59039;52.108;19.942;2023-06-22T09:56:47;5.60;;;5.00;;
60919;SDS011;59039;52.108;19.942;2023-06-22T09:59:34;8.60;;;5.20;;
60919;SDS011;59039;52.108;19.942;2023-06-22T10:01:58;8.50;;;5.10;;
60919;SDS011;59039;52.108;19.942;2023-06-22T10:04:24;8.80;;;5.20;;
60919;SDS011;59039;52.108;19.942;2023-06-22T10:06:49;8.10;;;5.60;;
60919;SDS011;59039;52.108;19.942;2023-06-22T10:09:14;10.40;;;5.50;;
60919;SDS011;59039;52.108;19.942;2023-06-22T10:11:40;9.60;;;5.50;;
60919;SDS011;59039;52.108;19.942;2023-06-22T10:14:05;8.70;;;6.20;;
60919;SDS011;59039;52.108;19.942;2023-06-22T10:16:31;8.50;;;5.90;;
60919;SDS011;59039;52.108;19.942;2023-06-22T10:18:56;6.60;;;5.30;;
60919;SDS011;59039;52.108;19.942;2023-06-22T10:21:30;7.50;;;5.70;;
60919;SDS011;59039;52.108;19.942;2023-06-22T10:23:55;8.10;;;5.70;;
60919;SDS011;59039;52.108;19.942;2023-06-22T10:26:24;8.90;;;6.60;;
60919;SDS011;59039;52.108;19.942;2023-06-22T10:28:49;9.80;;;6.20;;
60919;SDS011;59039;52.108;19.942;2023-06-22T10:31:15;7.40;;;5.40;;
60919;SDS011;59039;52.108;19.942;2023-06-22T10:33:43;8.10;;;5.20;;
60919;SDS011;59039;52.108;19.942;2023-06-22T10:36:09;6.30;;;5.00;;
60919;SDS011;59039;52.108;19.942;2023-06-22T10:38:35;9.90;;;6.10;;
60919;SDS011;59039;52.108;19.942;2023-06-22T10:41:00;7.60;;;5.70;;
60919;SDS011;59039;52.108;19.942;2023-06-22T10:43:25;7.80;;;5.50;;
60919;SDS011;59039;52.108;19.942;2023-06-22T10:45:51;8.00;;;5.60;;
60919;SDS011;59039;52.108;19.942;2023-06-22T10:48:16;8.40;;;5.60;;
60919;SDS011;59039;52.108;19.942;2023-06-22T10:50:42;8.20;;;6.30;;
60919;SDS011;59039;52.108;19.942;2023-06-22T10:53:07;8.90;;;6.50;;
60919;SDS011;59039;52.108;19.942;2023-06-22T10:55:35;8.50;;;6.10;;
60919;SDS011;59039;52.108;19.942;2023-06-22T10:58:03;7.10;;;6.20;;
60919;SDS011;59039;52.108;19.942;2023-06-22T11:00:29;10.30;;;7.10;;
60919;SDS011;59039;52.108;19.942;2023-06-22T11:02:54;8.70;;;6.00;;
60919;SDS011;59039;52.108;19.942;2023-06-22T11:05:23;8.00;;;6.00;;
60919;SDS011;59039;52.108;19.942;2023-06-22T11:07:48;8.30;;;6.00;;
60919;SDS011;59039;52.108;19.942;2023-06-22T11:10:13;8.60;;;6.70;;
60919;SDS011;59039;52.108;19.942;2023-06-22T11:12:39;10.90;;;6.70;;
60919;SDS011;59039;52.108;19.942;2023-06-22T11:15:04;8.20;;;5.60;;
60919;SDS011;59039;52.108;19.942;2023-06-22T11:17:30;8.10;;;5.80;;
60919;SDS011;59039;52.108;19.942;2023-06-22T11:19:55;6.20;;;5.20;;
60919;SDS011;59039;52.108;19.942;2023-06-22T11:22:21;8.80;;;5.60;;
60919;SDS011;59039;52.108;19.942;2023-06-22T11:24:46;7.60;;;5.50;;
60919;SDS011;59039;52.108;19.942;2023-06-22T11:27:11;8.40;;;5.40;;
60919;SDS011;59039;52.108;19.942;2023-06-22T11:29:37;7.80;;;5.60;;
60919;SDS011;59039;52.108;19.942;2023-06-22T11:32:02;8.10;;;5.50;;
60919;SDS011;59039;52.108;19.942;2023-06-22T11:34:27;7.80;;;5.60;;
60919;SDS011;59039;52.108;19.942;2023-06-22T11:36:53;7.90;;;5.20;;
60919;SDS011;59039;52.108;19.942;2023-06-22T11:39:18;6.90;;;5.30;;
60919;SDS011;59039;52.108;19.942;2023-06-22T11:41:43;6.50;;;5.10;;
60919;SDS011;59039;52.108;19.942;2023-06-22T11:44:15;7.20;;;5.20;;
60919;SDS011;59039;52.108;19.942;2023-06-22T11:46:40;9.40;;;5.70;;
60919;SDS011;59039;52.108;19.942;2023-06-22T11:49:09;6.70;;;5.10;;
60919;SDS011;59039;52.108;19.942;2023-06-22T11:51:34;8.90;;;5.00;;
60919;SDS011;59039;52.108;19.942;2023-06-22T11:53:59;6.30;;;5.10;;
60919;SDS011;59039;52.108;19.942;2023-06-22T11:56:28;6.20;;;4.90;;
60919;SDS011;59039;52.108;19.942;2023-06-22T11:58:53;7.30;;;5.20;;
60919;SDS011;59039;52.108;19.942;2023-06-22T12:01:18;7.30;;;5.30;;
60919;SDS011;59039;52.108;19.942;2023-06-22T12:03:44;10.10;;;5.40;;
60919;SDS011;59039;52.108;19.942;2023-06-22T12:06:09;6.80;;;5.00;;
60919;SDS011;59039;52.108;19.942;2023-06-22T12:08:35;5.40;;;4.60;;
60919;SDS011;59039;52.108;19.942;2023-06-22T12:11:00;5.70;;;4.60;;
60919;SDS011;59039;52.108;19.942;2023-06-22T12:13:25;6.60;;;4.40;;
60919;SDS011;59039;52.108;19.942;2023-06-22T12:15:56;8.20;;;5.00;;
60919;SDS011;59039;52.108;19.942;2023-06-22T12:18:24;5.80;;;4.30;;
60919;SDS011;59039;52.108;19.942;2023-06-22T12:20:49;5.80;;;4.20;;
60919;SDS011;59039;52.108;19.942;2023-06-22T12:23:15;5.00;;;3.70;;
60919;SDS011;59039;52.108;19.942;2023-06-22T12:25:40;5.50;;;4.10;;
60919;SDS011;59039;52.108;19.942;2023-06-22T12:28:06;6.50;;;3.70;;
60919;SDS011;59039;52.108;19.942;2023-06-22T12:30:34;6.90;;;4.20;;
60919;SDS011;59039;52.108;19.942;2023-06-22T12:32:59;6.30;;;4.10;;
60919;SDS011;59039;52.108;19.942;2023-06-22T12:35:25;6.00;;;3.80;;
60919;SDS011;59039;52.108;19.942;2023-06-22T12:37:50;5.70;;;3.80;;
60919;SDS011;59039;52.108;19.942;2023-06-22T12:40:17;5.80;;;4.00;;
60919;SDS011;59039;52.108;19.942;2023-06-22T12:42:48;6.00;;;3.80;;
60919;SDS011;59039;52.108;19.942;2023-06-22T12:45:14;5.60;;;4.40;;
60919;SDS011;59039;52.108;19.942;2023-06-22T12:51:08;4.60;;;3.50;;
60919;SDS011;59039;52.108;19.942;2023-06-22T12:53:45;9.00;;;4.30;;
60919;SDS011;59039;52.108;19.942;2023-06-22T12:56:10;4.60;;;3.90;;
60919;SDS011;59039;52.108;19.942;2023-06-22T12:58:35;6.60;;;4.00;;
60919;SDS011;59039;52.108;19.942;2023-06-22T13:01:01;6.90;;;3.80;;
60919;SDS011;59039;52.108;19.942;2023-06-22T13:03:26;6.00;;;4.20;;
60919;SDS011;59039;52.108;19.942;2023-06-22T13:05:51;4.90;;;3.50;;
60919;SDS011;59039;52.108;19.942;2023-06-22T13:08:17;5.20;;;3.80;;
60919;SDS011;59039;52.108;19.942;2023-06-22T13:10:42;5.00;;;3.80;;
60919;SDS011;59039;52.108;19.942;2023-06-22T13:13:10;6.00;;;3.60;;
60919;SDS011;59039;52.108;19.942;2023-06-22T13:15:43;8.60;;;4.50;;
60919;SDS011;59039;52.108;19.942;2023-06-22T13:18:08;6.90;;;4.20;;
60919;SDS011;59039;52.108;19.942;2023-06-22T13:20:48;6.80;;;4.30;;
60919;SDS011;59039;52.108;19.942;2023-06-22T13:23:13;5.20;;;3.80;;
60919;SDS011;59039;52.108;19.942;2023-06-22T13:25:39;5.50;;;3.90;;
60919;SDS011;59039;52.108;19.942;2023-06-22T13:28:12;5.60;;;4.10;;
60919;SDS011;59039;52.108;19.942;2023-06-22T13:30:37;7.90;;;4.30;;
60919;SDS011;59039;52.108;19.942;2023-06-22T13:33:02;11.50;;;4.60;;
60919;SDS011;59039;52.108;19.942;2023-06-22T13:35:30;5.80;;;3.90;;
60919;SDS011;59039;52.108;19.942;2023-06-22T13:37:55;5.70;;;4.50;;
60919;SDS011;59039;52.108;19.942;2023-06-22T13:40:21;6.00;;;4.30;;
60919;SDS011;59039;52.108;19.942;2023-06-22T13:42:46;7.50;;;4.20;;
60919;SDS011;59039;52.108;19.942;2023-06-22T13:45:11;5.40;;;4.20;;
60919;SDS011;59039;52.108;19.942;2023-06-22T13:47:37;4.80;;;4.20;;
60919;SDS011;59039;52.108;19.942;2023-06-22T13:50:02;8.90;;;4.00;;
60919;SDS011;59039;52.108;19.942;2023-06-22T13:52:28;6.80;;;4.40;;
60919;SDS011;59039;52.108;19.942;2023-06-22T13:54:53;7.50;;;4.60;;
60919;SDS011;59039;52.108;19.942;2023-06-22T13:57:19;8.20;;;4.80;;
60919;SDS011;59039;52.108;19.942;2023-06-22T13:59:44;5.70;;;3.90;;
60919;SDS011;59039;52.108;19.942;2023-06-22T14:02:10;5.80;;;4.20;;
60919;SDS011;59039;52.108;19.942;2023-06-22T14:04:35;5.70;;;4.10;;
60919;SDS011;59039;52.108;19.942;2023-06-22T14:07:00;6.50;;;3.90;;
60919;SDS011;59039;52.108;19.942;2023-06-22T14:09:26;6.00;;;3.90;;
60919;SDS011;59039;52.108;19.942;2023-06-22T14:11:51;6.10;;;3.90;;
60919;SDS011;59039;52.108;19.942;2023-06-22T14:14:19;6.70;;;4.00;;
60919;SDS011;59039;52.108;19.942;2023-06-22T14:16:44;5.00;;;3.70;;
60919;SDS011;59039;52.108;19.942;2023-06-22T14:19:12;5.30;;;4.30;;
60919;SDS011;59039;52.108;19.942;2023-06-22T14:21:37;5.40;;;4.20;;
60919;SDS011;59039;52.108;19.942;2023-06-22T14:24:03;6.20;;;4.10;;
60919;SDS011;59039;52.108;19.942;2023-06-22T14:26:28;5.50;;;3.60;;
60919;SDS011;59039;52.108;19.942;2023-06-22T14:28:54;7.20;;;3.70;;
60919;SDS011;59039;52.108;19.942;2023-06-22T14:31:19;4.50;;;3.70;;
60919;SDS011;59039;52.108;19.942;2023-06-22T14:33:48;5.40;;;4.40;;
60919;SDS011;59039;52.108;19.942;2023-06-22T14:36:15;6.80;;;4.70;;
60919;SDS011;59039;52.108;19.942;2023-06-22T14:38:41;5.80;;;3.80;;
60919;SDS011;59039;52.108;19.942;2023-06-22T14:41:06;7.70;;;4.40;;
60919;SDS011;59039;52.108;19.942;2023-06-22T14:43:32;7.90;;;4.00;;
60919;SDS011;59039;52.108;19.942;2023-06-22T14:46:05;5.80;;;4.00;;